Time;durP1;ratioP1;P1;durP2;ratioP2;P2;SDS_P1;SDS_P2;PMS_P1;PMS_P2;Temp;Humidity;BMP_temperature;BMP_pressure;BME280_temperature;BME280_humidity;BME280_pressure;Samples;Min_cycle;Max_cycle;Signal;HPM_P1;HPM_P2
2022/12/20 00:01:31;;;;;;;;;;;;;;;-6.76;74.10;98511.53;5135311;27;20453;-61
2022/12/20 00:04:02;;;;;;;10.98;5.88;;;;;;;-6.85;75.74;98510.97;5135049;27;19963;-65
2022/12/20 00:06:30;;;;;;;13.07;5.05;;;;;;;-6.91;75.83;98521.63;5134619;27;20086;-63
2022/12/20 00:09:00;;;;;;;8.60;4.97;;;;;;;-6.87;75.88;98517.59;5134821;27;20039;-63
2022/12/20 00:11:29;;;;;;;8.40;4.85;;;;;;;-6.95;75.91;98514.59;5134838;27;20051;-59
2022/12/20 00:13:57;;;;;;;11.05;5.05;;;;;;;-6.83;75.87;98511.06;5134871;27;20046;-61
2022/12/20 00:16:28;;;;;;;10.15;4.38;;;;;;;-6.85;74.35;98506.75;5134014;27;20047;-62
2022/12/20 00:18:58;;;;;;;13.50;5.18;;;;;;;-6.85;74.53;98499.13;5134485;27;20047;-62
2022/12/20 00:21:26;;;;;;;11.10;5.40;;;;;;;-7.02;74.38;98499.69;5134688;27;20484;-64
2022/12/20 00:23:54;;;;;;;11.32;5.22;;;;;;;-7.11;75.15;98506.00;5134398;27;20082;-60
2022/12/20 00:26:24;;;;;;;10.45;4.25;;;;;;;-7.16;75.59;98503.94;5134358;27;20039;-65
2022/12/20 00:28:52;;;;;;;10.75;4.57;;;;;;;-7.15;76.18;98506.59;5134372;27;20046;-62
2022/12/20 00:31:22;;;;;;;11.57;4.15;;;;;;;-7.11;75.90;98494.91;5134384;27;20119;-64
2022/12/20 00:33:53;;;;;;;8.98;4.97;;;;;;;-7.07;75.75;98503.63;5134290;27;20595;-63
2022/12/20 00:36:22;;;;;;;9.35;4.60;;;;;;;-7.06;75.25;98505.38;5134400;27;20400;-61
2022/12/20 00:38:51;;;;;;;9.65;4.70;;;;;;;-7.36;75.58;98499.34;5134227;27;20122;-61
2022/12/20 00:41:22;;;;;;;13.15;5.00;;;;;;;-7.42;76.98;98496.41;5134113;27;20051;-65
2022/12/20 00:43:50;;;;;;;11.18;4.68;;;;;;;-7.36;76.51;98494.25;5134176;27;20051;-61
2022/12/20 00:46:19;;;;;;;11.23;4.82;;;;;;;-7.39;75.83;98486.44;5134453;27;20047;-65
2022/12/20 00:48:47;;;;;;;8.15;4.88;;;;;;;-7.39;75.58;98500.78;5134327;27;20104;-60
2022/12/20 00:51:19;;;;;;;7.90;4.57;;;;;;;-7.38;76.27;98503.44;5134165;27;20055;-64
2022/12/20 00:53:47;;;;;;;9.98;5.28;;;;;;;-7.34;76.12;98494.34;5134059;27;20047;-65
2022/12/20 00:56:15;;;;;;;10.65;5.57;;;;;;;-7.28;75.70;98493.84;5134075;27;20122;-65
2022/12/20 00:58:44;;;;;;;7.30;4.30;;;;;;;-7.47;75.35;98490.13;5133968;28;20563;-61
2022/12/20 01:01:21;;;;;;;7.37;4.07;;;;;;;-7.47;75.51;98494.34;5133939;28;20057;-64
2022/12/20 01:03:49;;;;;;;12.30;4.47;;;;;;;-7.37;75.36;98494.16;5133946;28;20047;-65
2022/12/20 01:06:19;;;;;;;7.10;3.80;;;;;;;-7.34;75.55;98488.38;5133899;28;20052;-65
2022/12/20 01:08:48;;;;;;;7.75;3.90;;;;;;;-7.33;75.58;98488.47;5133920;28;20489;-59
2022/12/20 01:11:18;;;;;;;8.15;4.18;;;;;;;-7.30;75.10;98491.22;5133915;28;20043;-64
2022/12/20 01:13:48;;;;;;;6.93;4.22;;;;;;;-7.33;75.35;98485.94;5133905;28;20508;-62
2022/12/20 01:16:18;;;;;;;9.40;5.43;;;;;;;-7.44;75.20;98484.38;5133895;28;20489;-63
2022/12/20 01:18:46;;;;;;;7.10;3.83;;;;;;;-7.47;76.21;98486.72;5133840;28;20047;-62
2022/12/20 01:21:16;;;;;;;9.32;4.15;;;;;;;-7.39;76.05;98483.00;5133851;28;20043;-62
2022/12/20 01:23:45;;;;;;;8.38;3.97;;;;;;;-7.42;75.88;98473.50;5133779;28;20078;-64
2022/12/20 01:26:15;;;;;;;9.52;4.07;;;;;;;-7.45;75.20;98441.91;5133759;28;20078;-62
2022/12/20 01:28:44;;;;;;;7.22;4.20;;;;;;;-7.38;74.85;98464.38;5135602;27;20047;-65
2022/12/20 01:31:13;;;;;;;6.60;3.75;;;;;;;-7.39;75.49;98453.34;5137779;27;20055;-64
2022/12/20 01:33:41;;;;;;;6.23;4.00;;;;;;;-7.37;75.70;98453.47;5137777;27;20051;-61
2022/12/20 01:36:12;;;;;;;12.40;6.07;;;;;;;-7.39;75.78;98455.00;5137782;27;20051;-65
2022/12/20 01:38:40;;;;;;;11.73;5.20;;;;;;;-7.34;76.04;98446.03;5137519;27;20112;-62
2022/12/20 01:41:14;;;;;;;7.68;4.47;;;;;;;-7.36;75.81;98445.03;5137625;27;20134;-63
2022/12/20 01:43:48;;;;;;;13.13;5.05;;;;;;;-7.32;75.43;98446.97;5137388;27;20236;-62
2022/12/20 01:46:17;;;;;;;10.35;4.90;;;;;;;-7.29;75.97;98446.31;5137443;27;20485;-65
2022/12/20 01:48:49;;;;;;;9.32;5.10;;;;;;;-7.29;76.21;98446.31;5137375;27;20051;-64
2022/12/20 01:51:17;;;;;;;11.07;3.90;;;;;;;-7.19;75.65;98437.59;5137395;27;20054;-60
2022/12/20 01:53:46;;;;;;;7.47;4.13;;;;;;;-7.13;75.68;98438.84;5137283;27;20053;-63
2022/12/20 01:56:15;;;;;;;6.38;4.00;;;;;;;-7.21;76.49;98428.97;5137396;27;20043;-61
2022/12/20 01:58:44;;;;;;;5.47;3.40;;;;;;;-7.15;76.97;98429.34;5137258;27;20043;-64
2022/12/20 02:01:11;;;;;;;9.95;5.18;;;;;;;-7.06;77.54;98427.38;5137288;27;20050;-61
2022/12/20 02:03:39;;;;;;;8.65;5.10;;;;;;;-7.00;77.60;98426.88;5137415;27;20155;-66
2022/12/20 02:06:18;;;;;;;9.88;4.50;;;;;;;-6.85;77.86;98422.75;5137146;27;20090;-64
2022/12/20 02:08:47;;;;;;;8.57;4.75;;;;;;;-6.72;77.92;98431.09;5136957;27;20055;-65
2022/12/20 02:11:29;;;;;;;10.38;4.68;;;;;;;-6.65;78.23;98424.75;5136952;27;20039;-63
2022/12/20 02:14:10;;;;;;;8.00;4.45;;;;;;;-6.61;78.63;98419.03;5136875;27;20134;-63
2022/12/20 02:16:48;;;;;;;8.27;4.57;;;;;;;-6.44;79.17;98426.81;5137051;27;20100;-63
2022/12/20 02:19:34;;;;;;;10.73;5.00;;;;;;;-6.28;79.70;98421.84;5137216;27;20427;-61
2022/12/20 02:22:15;;;;;;;10.05;4.47;;;;;;;-6.19;79.36;98420.59;5136940;27;20051;-62
2022/12/20 02:25:06;;;;;;;12.75;4.93;;;;;;;-6.22;78.64;98423.84;5136622;27;20481;-65
2022/12/20 02:27:55;;;;;;;11.82;5.47;;;;;;;-6.17;78.65;98417.34;5136670;27;20054;-64
2022/12/20 02:30:26;;;;;;;11.30;4.72;;;;;;;-6.18;79.25;98414.72;5136685;27;20047;-62
2022/12/20 02:32:59;;;;;;;11.10;5.93;;;;;;;-6.07;79.52;98406.03;5136570;27;20492;-65
2022/12/20 02:35:30;;;;;;;12.25;5.43;;;;;;;-6.03;79.19;98407.94;5136489;27;20070;-64
2022/12/20 02:38:00;;;;;;;7.72;4.15;;;;;;;-5.96;79.97;98402.38;5136517;27;20050;-63
2022/12/20 02:40:32;;;;;;;9.48;4.65;;;;;;;-5.88;79.79;98401.94;5135576;27;20047;-61
2022/12/20 02:43:03;;;;;;;9.65;4.57;;;;;;;-5.79;79.72;98396.47;5136204;27;20051;-62
2022/12/20 02:45:35;;;;;;;9.75;5.72;;;;;;;-5.64;79.61;98393.91;5136394;27;20051;-61
2022/12/20 02:48:07;;;;;;;14.18;6.63;;;;;;;-5.55;79.76;98396.09;5136230;27;20047;-60
2022/12/20 02:50:39;;;;;;;10.32;5.80;;;;;;;-5.42;79.84;98395.97;5136214;27;20070;-65
2022/12/20 02:53:08;;;;;;;11.50;5.03;;;;;;;-5.36;79.56;98398.88;5136288;27;20573;-62
2022/12/20 02:55:46;;;;;;;9.43;5.63;;;;;;;-5.27;79.31;98402.75;5136236;27;20051;-60
2022/12/20 02:58:24;;;;;;;10.02;5.50;;;;;;;-5.29;79.02;98401.78;5136322;27;20047;-62
2022/12/20 03:00:57;;;;;;;13.30;6.28;;;;;;;-5.26;79.08;98394.28;5136192;27;20491;-62
2022/12/20 03:03:25;;;;;;;12.88;5.05;;;;;;;-5.23;79.40;98395.34;5136061;27;20130;-65
2022/12/20 03:05:55;;;;;;;9.32;4.25;;;;;;;-5.22;79.17;98391.97;5136043;27;20523;-63
2022/12/20 03:08:23;;;;;;;9.60;5.30;;;;;;;-5.19;79.40;98391.25;5135852;27;20051;-64
2022/12/20 03:10:54;;;;;;;8.30;4.68;;;;;;;-5.17;79.39;98392.25;5136099;27;20047;-62
2022/12/20 03:13:22;;;;;;;11.13;5.88;;;;;;;-5.23;79.02;98384.25;5135761;27;20100;-63
2022/12/20 03:15:50;;;;;;;13.38;5.75;;;;;;;-5.16;78.96;98378.66;5135736;27;20047;-61
2022/12/20 03:18:19;;;;;;;11.23;5.80;;;;;;;-5.21;78.57;98372.47;5135889;27;20453;-65
2022/12/20 03:20:46;;;;;;;8.32;5.05;;;;;;;-5.25;78.40;98375.63;5135988;27;20051;-65
2022/12/20 03:23:13;;;;;;;9.52;4.60;;;;;;;-5.25;78.30;98379.06;5135843;27;20137;-64
2022/12/20 03:25:41;;;;;;;9.13;4.22;;;;;;;-5.26;78.17;98377.31;5135641;27;20039;-63
2022/12/20 03:28:08;;;;;;;8.70;4.65;;;;;;;-5.26;78.40;98372.19;5135485;27;20048;-61
2022/12/20 03:30:35;;;;;;;10.68;4.97;;;;;;;-5.32;78.30;98370.16;5135568;27;20531;-63
2022/12/20 03:33:02;;;;;;;9.40;4.97;;;;;;;-5.34;77.43;98379.44;5135537;27;20054;-64
2022/12/20 03:35:31;;;;;;;10.25;5.03;;;;;;;-5.35;77.00;98380.25;5135589;27;20061;-63
2022/12/20 03:37:58;;;;;;;8.18;5.25;;;;;;;-5.36;76.57;98380.16;5135297;27;20043;-65
2022/12/20 03:40:25;;;;;;;9.10;4.32;;;;;;;-5.40;76.40;98374.00;5135333;27;20092;-63
2022/12/20 03:42:52;;;;;;;9.60;4.95;;;;;;;-5.45;76.22;98375.41;5135040;27;20065;-60
2022/12/20 03:45:19;;;;;;;11.60;5.30;;;;;;;-5.49;76.10;98382.03;5135271;27;20476;-63
2022/12/20 03:47:46;;;;;;;11.02;5.38;;;;;;;-5.54;75.81;98391.06;5135143;27;20055;-63
2022/12/20 03:50:14;;;;;;;8.85;4.43;;;;;;;-5.55;75.69;98378.25;5135141;27;20104;-63
2022/12/20 03:52:42;;;;;;;12.63;6.18;;;;;;;-5.61;75.51;98382.22;5135118;27;20445;-60
2022/12/20 03:55:11;;;;;;;11.10;5.05;;;;;;;-5.67;75.46;98383.53;5134964;27;20099;-62
2022/12/20 03:57:38;;;;;;;12.27;5.82;;;;;;;-5.65;75.20;98395.59;5134966;27;20047;-60
2022/12/20 04:00:07;;;;;;;10.20;5.13;;;;;;;-5.63;74.64;98398.25;5135018;27;20126;-64
2022/12/20 04:02:34;;;;;;;12.07;5.78;;;;;;;-5.73;74.09;98391.72;5134886;27;20057;-64
2022/12/20 04:05:01;;;;;;;9.65;5.68;;;;;;;-5.85;74.07;98385.16;5134970;27;20047;-60
2022/12/20 04:07:28;;;;;;;10.48;5.70;;;;;;;-5.92;74.33;98392.38;5134679;27;20082;-63
2022/12/20 04:09:57;;;;;;;12.38;5.75;;;;;;;-5.96;74.22;98393.88;5134814;27;20039;-63
2022/12/20 04:12:24;;;;;;;11.77;5.65;;;;;;;-6.00;73.96;98391.91;5134852;27;20074;-63
2022/12/20 04:14:51;;;;;;;10.45;5.72;;;;;;;-6.06;74.53;98381.44;5135015;27;20043;-62
2022/12/20 04:17:19;;;;;;;13.65;6.22;;;;;;;-6.15;74.38;98376.66;5134764;27;20079;-65
2022/12/20 04:19:46;;;;;;;9.70;5.90;;;;;;;-6.24;74.19;98377.91;5134584;27;20058;-63
2022/12/20 04:22:13;;;;;;;10.30;5.47;;;;;;;-6.30;74.27;98377.53;5134573;27;20104;-64
2022/12/20 04:24:40;;;;;;;8.75;5.13;;;;;;;-6.31;74.42;98375.78;5134654;27;20051;-63
2022/12/20 04:27:10;;;;;;;9.77;5.57;;;;;;;-6.37;74.44;98371.22;5134672;27;20560;-59
2022/12/20 04:29:38;;;;;;;9.50;5.18;;;;;;;-6.45;73.97;98374.09;5134370;27;20065;-63
2022/12/20 04:32:06;;;;;;;14.43;6.85;;;;;;;-6.50;74.50;98371.28;5134421;27;20095;-61
2022/12/20 04:34:34;;;;;;;17.42;6.20;;;;;;;-6.53;74.77;98371.09;5134356;27;20047;-66
2022/12/20 04:37:01;;;;;;;12.30;5.78;;;;;;;-6.60;74.91;98369.84;5134522;27;20100;-65
2022/12/20 04:39:29;;;;;;;15.18;6.60;;;;;;;-6.56;74.59;98373.47;5134391;27;20378;-65
2022/12/20 04:41:57;;;;;;;12.95;5.78;;;;;;;-6.53;74.37;98373.66;5134012;27;20103;-61
2022/12/20 04:44:26;;;;;;;15.27;6.55;;;;;;;-6.51;74.47;98361.88;5134426;27;20039;-64
2022/12/20 04:47:00;;;;;;;11.68;5.72;;;;;;;-6.62;74.59;98357.03;5134207;27;20043;-61
2022/12/20 04:49:28;;;;;;;17.23;6.32;;;;;;;-6.62;74.56;98363.81;5133701;27;20047;-63
2022/12/20 04:53:46;;;;;;;11.68;6.07;;;;;;;-6.65;74.40;98363.63;5134392;27;20107;-61
2022/12/20 04:54:41;;;;;;;12.48;6.32;;;;;;;-6.68;74.69;98350.69;5134130;27;20104;-64
2022/12/20 04:57:09;;;;;;;14.05;6.38;;;;;;;-6.69;74.85;98354.03;5134170;27;20416;-60
2022/12/20 04:59:38;;;;;;;13.07;6.30;;;;;;;-6.66;74.22;98357.63;5133962;28;20047;-63
2022/12/20 05:02:05;;;;;;;13.98;5.75;;;;;;;-6.69;74.63;98367.63;5134055;28;20111;-61
2022/12/20 05:04:32;;;;;;;16.73;6.93;;;;;;;-6.72;74.86;98354.72;5140357;27;20043;-65
2022/12/20 05:07:00;;;;;;;20.33;6.65;;;;;;;-6.82;74.72;98363.47;5140860;27;20096;-65
2022/12/20 05:09:27;;;;;;;14.65;6.35;;;;;;;-6.88;75.05;98361.47;5140799;27;20103;-65
2022/12/20 05:11:54;;;;;;;13.35;6.45;;;;;;;-6.83;74.99;98359.19;5141044;27;20054;-64
2022/12/20 05:14:22;;;;;;;12.52;6.38;;;;;;;-6.85;74.89;98353.13;5140732;27;20043;-61
2022/12/20 05:16:50;;;;;;;11.50;6.28;;;;;;;-6.91;75.15;98350.19;5140806;27;20100;-63
2022/12/20 05:19:18;;;;;;;11.23;6.07;;;;;;;-6.89;74.99;98346.94;5140710;27;20043;-65
2022/12/20 05:27:16;;;;;;;10.43;5.57;;;;;;;-6.86;74.81;98351.38;5140751;27;20462;-63
2022/12/20 05:29:43;;;;;;;56.45;30.08;;;;;;;-6.82;74.88;98344.78;5140494;27;20065;-65
2022/12/20 05:32:12;;;;;;;27.35;15.65;;;;;;;-6.87;74.83;98345.38;5140577;27;20047;-63
2022/12/20 05:34:40;;;;;;;20.83;11.73;;;;;;;-6.91;75.44;98340.00;5140525;27;20489;-66
2022/12/20 05:37:07;;;;;;;25.20;9.77;;;;;;;-6.88;75.24;98345.28;5140634;27;20039;-61
2022/12/20 05:39:36;;;;;;;13.30;6.45;;;;;;;-6.87;75.35;98344.50;5140648;27;20051;-63
2022/12/20 05:42:04;;;;;;;15.70;6.18;;;;;;;-6.81;75.05;98351.66;5140401;27;20130;-59
2022/12/20 05:44:32;;;;;;;10.95;5.65;;;;;;;-6.84;75.00;98352.31;5140492;27;20086;-63
2022/12/20 05:47:00;;;;;;;11.27;5.53;;;;;;;-6.99;75.30;98340.44;5140552;27;20050;-65
2022/12/20 05:49:33;;;;;;;15.90;5.97;;;;;;;-6.92;75.47;98343.34;5140533;27;20546;-62
2022/12/20 05:52:02;;;;;;;10.43;5.40;;;;;;;-6.88;75.22;98348.72;5140560;27;20076;-65
2022/12/20 05:54:30;;;;;;;11.10;5.20;;;;;;;-6.92;76.30;98345.91;5140600;27;20454;-64
2022/12/20 05:56:58;;;;;;;10.82;6.03;;;;;;;-6.89;76.07;98343.53;5140404;27;20126;-60
2022/12/20 05:59:26;;;;;;;10.27;5.22;;;;;;;-6.90;75.73;98346.84;5140552;27;20054;-60
2022/12/20 06:01:53;;;;;;;11.02;5.45;;;;;;;-6.95;76.03;98344.06;5140149;27;20043;-59
2022/12/20 06:04:21;;;;;;;10.82;5.60;;;;;;;-6.96;76.37;98333.78;5140296;27;20104;-65
2022/12/20 06:06:51;;;;;;;11.05;6.07;;;;;;;-6.87;76.58;98331.75;5140271;27;20043;-59
2022/12/20 06:09:18;;;;;;;14.13;6.43;;;;;;;-6.87;76.35;98334.31;5140156;27;20051;-59
2022/12/20 06:11:46;;;;;;;9.85;5.25;;;;;;;-6.77;76.75;98341.72;5140159;27;20182;-61
2022/12/20 06:14:13;;;;;;;11.65;5.75;;;;;;;-6.65;76.76;98339.00;5138684;27;20047;-63
2022/12/20 06:16:40;;;;;;;10.40;5.80;;;;;;;-6.63;76.40;98340.00;5136515;27;20085;-63
2022/12/20 06:19:07;;;;;;;19.13;5.65;;;;;;;-6.65;76.76;98338.16;5136894;27;20043;-59
2022/12/20 06:21:35;;;;;;;17.55;6.10;;;;;;;-6.52;77.03;98333.00;5137021;27;20130;-60
2022/12/20 06:24:04;;;;;;;11.13;5.90;;;;;;;-6.29;77.60;98335.09;5136854;27;20043;-64
2022/12/20 06:26:35;;;;;;;13.68;5.97;;;;;;;-5.13;78.69;98330.34;5136951;27;20051;-60
2022/12/20 06:29:02;;;;;;;10.77;5.45;;;;;;;-3.08;73.55;98319.66;5136708;27;20057;-61
2022/12/20 06:31:30;;;;;;;17.17;5.85;;;;;;;-1.08;64.87;98325.16;5136648;27;20078;-67
2022/12/20 06:33:57;;;;;;;11.68;5.68;;;;;;;0.74;59.26;98318.28;5136636;27;20050;-61
2022/12/20 06:36:24;;;;;;;6.65;4.30;;;;;;;2.49;53.90;98319.31;5136662;27;20124;-65
2022/12/20 06:38:52;;;;;;;12.63;5.47;;;;;;;4.01;48.37;98323.16;5136593;27;20524;-62
2022/12/20 06:41:20;;;;;;;9.75;6.00;;;;;;;5.38;46.57;98325.06;5136479;27;20567;-63
2022/12/20 06:43:47;;;;;;;10.73;5.80;;;;;;;6.67;43.36;98314.06;5136260;27;20528;-64
2022/12/20 06:46:14;;;;;;;9.02;5.80;;;;;;;7.74;40.76;98307.56;5136718;27;20039;-65
2022/12/20 06:48:42;;;;;;;11.73;7.07;;;;;;;8.65;38.37;98309.31;5136353;27;20050;-63
2022/12/20 06:51:09;;;;;;;10.85;6.90;;;;;;;9.61;37.02;98313.28;5136315;27;20046;-63
2022/12/20 06:53:37;;;;;;;9.90;5.90;;;;;;;10.44;34.99;98314.41;5136311;27;20085;-62
2022/12/20 06:56:04;;;;;;;10.45;6.10;;;;;;;11.07;33.09;98307.69;5136337;27;20100;-62
2022/12/20 06:58:33;;;;;;;12.20;6.32;;;;;;;11.74;32.78;98319.94;5136180;27;20393;-65
2022/12/20 07:01:00;;;;;;;8.68;5.47;;;;;;;12.47;31.36;98317.97;5136118;27;20039;-64
2022/12/20 07:03:28;;;;;;;8.68;5.93;;;;;;;12.88;30.07;98318.09;5136040;27;20061;-64
2022/12/20 07:05:55;;;;;;;8.50;5.22;;;;;;;11.92;31.12;98314.44;5136020;27;20138;-62
2022/12/20 07:08:24;;;;;;;8.82;5.15;;;;;;;10.54;33.33;98323.09;5136277;27;20081;-63
2022/12/20 07:10:53;;;;;;;7.90;5.75;;;;;;;9.60;34.61;98322.00;5135924;27;20050;-64
2022/12/20 07:13:21;;;;;;;11.07;5.27;;;;;;;8.96;35.79;98317.06;5136001;27;20061;-62
2022/12/20 07:15:57;;;;;;;9.48;5.75;;;;;;;7.83;38.34;98318.00;5135830;27;20404;-66
2022/12/20 07:18:24;;;;;;;8.77;5.90;;;;;;;6.87;39.73;98319.41;5135783;27;20039;-64
2022/12/20 07:20:51;;;;;;;7.88;4.97;;;;;;;6.19;41.12;98325.00;5135704;27;20047;-65
2022/12/20 07:23:19;;;;;;;9.02;5.32;;;;;;;5.38;42.83;98325.06;5135792;27;20039;-63
2022/12/20 07:25:55;;;;;;;8.27;5.50;;;;;;;4.58;45.09;98317.13;5135276;27;20043;-62
2022/12/20 07:28:22;;;;;;;9.43;5.85;;;;;;;3.80;47.77;98314.19;5135465;27;20050;-63
2022/12/20 07:30:51;;;;;;;10.60;6.20;;;;;;;3.16;49.55;98331.09;5135562;27;20043;-63
2022/12/20 07:33:19;;;;;;;10.32;6.30;;;;;;;2.60;51.82;98323.03;5135486;27;20071;-64
2022/12/20 07:35:46;;;;;;;12.23;6.45;;;;;;;2.25;53.20;98323.97;5135391;27;20523;-63
2022/12/20 07:38:13;;;;;;;12.85;6.20;;;;;;;1.98;55.08;98319.88;5135497;27;20113;-64
2022/12/20 07:40:42;;;;;;;9.85;6.25;;;;;;;1.82;56.83;98320.31;5135473;27;20141;-63
2022/12/20 07:43:09;;;;;;;16.17;7.38;;;;;;;1.88;57.38;98321.34;5135100;27;20408;-64
2022/12/20 07:45:36;;;;;;;13.73;7.70;;;;;;;1.85;56.83;98317.81;5135228;27;20100;-63
2022/12/20 07:48:06;;;;;;;13.30;6.93;;;;;;;1.74;57.08;98326.16;5135401;27;20130;-62
2022/12/20 07:50:34;;;;;;;12.88;7.57;;;;;;;1.56;58.01;98331.69;5135099;27;20484;-61
2022/12/20 07:53:06;;;;;;;14.73;7.43;;;;;;;1.38;60.17;98332.06;5135166;27;20047;-63
2022/12/20 07:55:34;;;;;;;15.05;7.72;;;;;;;1.21;60.70;98324.72;5135045;27;20407;-61
2022/12/20 07:58:05;;;;;;;13.55;7.13;;;;;;;1.16;60.85;98323.75;5134992;27;20043;-64
2022/12/20 08:00:33;;;;;;;13.55;7.70;;;;;;;0.98;61.87;98312.09;5135143;27;20504;-61
2022/12/20 08:03:08;;;;;;;12.57;7.45;;;;;;;0.97;61.24;98318.06;5134966;27;20047;-62
2022/12/20 08:05:40;;;;;;;12.75;7.80;;;;;;;1.08;62.61;98315.78;5134864;27;20054;-62
2022/12/20 08:08:08;;;;;;;15.18;7.75;;;;;;;1.19;62.99;98320.38;5134911;27;20126;-63
2022/12/20 08:10:37;;;;;;;11.13;6.82;;;;;;;1.04;65.51;98319.13;5134729;27;20057;-62
2022/12/20 08:13:06;;;;;;;11.55;7.05;;;;;;;1.09;65.26;98320.09;5134784;27;20055;-62
2022/12/20 08:15:35;;;;;;;16.25;7.78;;;;;;;1.13;64.76;98309.06;5134679;27;20054;-61
2022/12/20 08:18:05;;;;;;;13.75;7.38;;;;;;;1.09;64.32;98307.22;5134688;27;20054;-62
2022/12/20 08:20:34;;;;;;;13.73;7.75;;;;;;;1.30;64.07;98300.94;5134360;27;20122;-61
2022/12/20 08:23:04;;;;;;;15.88;8.70;;;;;;;1.58;64.09;98311.09;5134608;27;20039;-63
2022/12/20 08:25:31;;;;;;;18.35;8.95;;;;;;;1.77;63.87;98308.16;5134544;27;20092;-63
2022/12/20 08:28:02;;;;;;;14.02;8.13;;;;;;;1.87;62.09;98298.94;5134438;27;20484;-62
2022/12/20 08:30:30;;;;;;;12.35;8.00;;;;;;;1.91;62.75;98301.59;5134330;27;20047;-64
2022/12/20 08:32:57;;;;;;;14.80;8.13;;;;;;;1.87;63.92;98291.19;5134330;27;20047;-64
2022/12/20 08:35:25;;;;;;;13.45;8.30;;;;;;;1.99;63.85;98298.38;5134299;27;20047;-61
2022/12/20 08:37:52;;;;;;;13.35;8.07;;;;;;;2.62;62.62;98285.16;5133573;27;20100;-63
2022/12/20 08:40:21;;;;;;;15.50;8.57;;;;;;;3.81;59.83;98278.78;5134319;27;20047;-64
2022/12/20 08:42:49;;;;;;;15.73;10.18;;;;;;;5.13;55.38;98278.09;5134089;27;20063;-61
2022/12/20 08:45:17;;;;;;;15.25;8.88;;;;;;;6.24;50.80;98268.75;5134515;27;20043;-62
2022/12/20 08:47:45;;;;;;;11.23;6.95;;;;;;;6.65;49.33;98269.84;5134426;27;20047;-62
2022/12/20 08:50:13;;;;;;;15.90;6.68;;;;;;;6.86;47.55;98269.97;5134052;27;20043;-64
2022/12/20 08:52:42;;;;;;;8.10;5.70;;;;;;;7.19;43.77;98270.94;5134032;27;20496;-65
2022/12/20 08:55:09;;;;;;;10.40;6.32;;;;;;;7.42;42.94;98267.53;5134093;27;20103;-64
2022/12/20 08:57:37;;;;;;;10.23;7.35;;;;;;;8.08;43.28;98260.66;5134229;27;20104;-62
2022/12/20 09:00:06;;;;;;;9.88;6.50;;;;;;;8.58;42.14;98258.88;5134036;27;20374;-62
2022/12/20 09:02:36;;;;;;;10.32;6.95;;;;;;;8.62;42.55;98249.31;5134029;28;20503;-63
2022/12/20 09:05:05;;;;;;;13.57;6.60;;;;;;;8.48;42.30;98241.47;5133887;28;20432;-64
2022/12/20 09:07:32;;;;;;;11.20;6.63;;;;;;;8.01;43.24;98241.53;5133915;28;20047;-64
2022/12/20 09:09:59;;;;;;;9.10;6.35;;;;;;;7.17;46.52;98231.03;5133809;28;20047;-62
2022/12/20 09:12:27;;;;;;;10.50;6.38;;;;;;;6.24;48.99;98226.28;5134095;28;20077;-62
2022/12/20 09:14:55;;;;;;;10.40;6.45;;;;;;;5.76;50.76;98225.06;5133808;28;20062;-63
2022/12/20 09:17:28;;;;;;;8.40;5.60;;;;;;;5.39;52.09;98224.72;5133828;28;20494;-62
2022/12/20 09:19:57;;;;;;;14.93;5.80;;;;;;;5.21;53.68;98210.69;5133882;28;20531;-63
2022/12/20 09:22:24;;;;;;;8.57;5.88;;;;;;;4.99;53.90;98213.06;5133855;28;20039;-62
2022/12/20 09:24:51;;;;;;;9.13;5.70;;;;;;;4.72;54.50;98219.66;5133931;28;20086;-63
2022/12/20 09:27:19;;;;;;;6.60;4.43;;;;;;;4.60;53.57;98204.81;5134152;28;20043;-62
2022/12/20 09:29:46;;;;;;;3.95;2.90;;;;;;;4.53;52.37;98200.41;5133614;28;20051;-63
2022/12/20 09:32:15;;;;;;;5.10;2.53;;;;;;;4.47;51.64;98195.13;5133800;28;20047;-62
2022/12/20 09:34:46;;;;;;;4.85;2.92;;;;;;;4.40;52.22;98189.88;5133807;28;20061;-62
2022/12/20 09:37:17;;;;;;;3.60;3.00;;;;;;;4.37;53.63;98186.38;5133818;28;20051;-64
2022/12/20 09:39:44;;;;;;;3.80;2.50;;;;;;;4.50;53.34;98187.41;5133626;28;20051;-61
2022/12/20 09:42:15;;;;;;;4.45;2.42;;;;;;;4.42;52.83;98179.53;5133443;28;20057;-62
2022/12/20 09:44:43;;;;;;;6.60;2.95;;;;;;;4.45;53.63;98178.72;5133611;28;20461;-62
2022/12/20 09:47:17;;;;;;;3.08;2.38;;;;;;;4.49;52.00;98177.91;5133659;28;20079;-63
2022/12/20 09:49:47;;;;;;;4.72;2.35;;;;;;;4.45;52.13;98171.78;5135867;27;20040;-63
2022/12/20 09:52:42;;;;;;;4.68;2.63;;;;;;;4.29;54.01;98163.84;5137572;27;20043;-61
2022/12/20 09:55:19;;;;;;;3.08;1.98;;;;;;;4.21;52.78;98164.59;5137469;27;20395;-63
2022/12/20 09:58:04;;;;;;;5.07;2.25;;;;;;;4.06;53.66;98167.84;5137615;27;20039;-61
2022/12/20 10:00:37;;;;;;;4.68;2.42;;;;;;;4.12;54.02;98153.22;5137303;27;20054;-62
2022/12/20 10:03:11;;;;;;;3.15;2.38;;;;;;;4.27;53.00;98156.88;5137373;27;20047;-64
2022/12/20 10:05:46;;;;;;;6.13;3.15;;;;;;;4.29;53.95;98157.78;5137283;27;20134;-63
2022/12/20 10:08:22;;;;;;;4.22;2.85;;;;;;;4.42;54.57;98151.00;5137434;27;20126;-64
2022/12/20 10:10:56;;;;;;;4.35;2.80;;;;;;;4.40;56.12;98150.16;5137087;27;20555;-64
2022/12/20 10:13:35;;;;;;;4.78;3.05;;;;;;;4.52;55.77;98147.69;5137219;27;20083;-61
2022/12/20 10:16:14;;;;;;;7.68;2.78;;;;;;;4.65;53.77;98140.94;5137001;27;20043;-62
2022/12/20 10:18:56;;;;;;;4.88;2.60;;;;;;;4.47;53.86;98138.13;5136974;27;20485;-64
2022/12/20 10:21:32;;;;;;;5.25;2.78;;;;;;;4.43;54.76;98132.03;5136933;27;20486;-64
2022/12/20 10:24:02;;;;;;;4.47;2.72;;;;;;;4.52;54.96;98123.50;5136856;27;20051;-62
2022/12/20 10:26:30;;;;;;;3.08;2.17;;;;;;;4.54;54.12;98120.06;5136758;27;20045;-63
2022/12/20 10:28:57;;;;;;;4.70;2.50;;;;;;;4.53;54.07;98110.56;5136799;27;20122;-64
2022/12/20 10:31:25;;;;;;;5.00;2.28;;;;;;;4.60;54.50;98116.66;5136682;27;20082;-64
2022/12/20 10:33:54;;;;;;;6.25;2.80;;;;;;;4.50;53.84;98104.47;5136792;27;20039;-64
2022/12/20 10:36:25;;;;;;;7.03;3.40;;;;;;;4.51;53.36;98106.19;5136677;27;20047;-65
2022/12/20 10:38:55;;;;;;;3.58;2.63;;;;;;;4.71;53.30;98102.97;5136504;27;20047;-65
2022/12/20 10:41:25;;;;;;;6.88;3.33;;;;;;;4.67;54.04;98096.88;5136538;27;20047;-64
2022/12/20 10:43:56;;;;;;;6.00;2.85;;;;;;;4.76;53.54;98096.13;5136336;27;20074;-63
2022/12/20 10:46:34;;;;;;;3.20;2.40;;;;;;;4.87;52.31;98091.00;5136499;27;20047;-64
2022/12/20 10:49:22;;;;;;;4.18;2.80;;;;;;;4.73;53.28;98089.16;5136405;27;20485;-64
2022/12/20 10:51:52;;;;;;;5.07;2.35;;;;;;;4.59;52.55;98091.63;5136252;27;20066;-62
2022/12/20 10:54:23;;;;;;;3.42;2.63;;;;;;;4.45;53.91;98081.09;5136320;27;20447;-64
2022/12/20 10:56:57;;;;;;;6.00;2.83;;;;;;;4.58;53.63;98076.03;5136294;27;20122;-64
2022/12/20 10:59:32;;;;;;;5.07;2.65;;;;;;;4.65;52.93;98072.66;5136160;27;20050;-64
2022/12/20 11:01:59;;;;;;;2.97;2.40;;;;;;;4.74;51.46;98064.09;5135429;27;20043;-64
2022/12/20 11:04:30;;;;;;;5.35;2.75;;;;;;;4.67;50.74;98069.22;5136118;27;20078;-63
2022/12/20 11:06:58;;;;;;;3.38;2.53;;;;;;;4.74;51.70;98062.38;5136177;27;20126;-62
2022/12/20 11:09:29;;;;;;;4.25;2.58;;;;;;;4.75;52.05;98061.53;5136017;27;20043;-66
2022/12/20 11:12:01;;;;;;;3.85;2.30;;;;;;;4.75;51.14;98045.09;5136012;27;20047;-65
2022/12/20 11:14:29;;;;;;;4.93;2.75;;;;;;;4.72;51.20;98051.13;5135961;27;20053;-61
2022/12/20 11:16:59;;;;;;;3.42;2.50;;;;;;;4.78;52.13;98042.53;5135834;27;20046;-64
2022/12/20 11:19:54;;;;;;;6.22;2.88;;;;;;;4.85;51.47;98036.53;5135799;27;20096;-62
2022/12/20 11:22:33;;;;;;;4.35;2.40;;;;;;;4.87;51.46;98031.34;5135677;27;20047;-61
2022/12/20 11:25:20;;;;;;;4.47;3.00;;;;;;;4.84;52.94;98026.19;5135719;27;20039;-64
2022/12/20 11:27:58;;;;;;;6.60;3.00;;;;;;;4.72;52.27;98029.53;5135647;27;20043;-65
2022/12/20 11:30:33;;;;;;;5.43;3.08;;;;;;;4.66;52.71;98027.72;5135579;27;20059;-61
2022/12/20 11:33:25;;;;;;;4.80;2.75;;;;;;;4.61;52.73;98021.63;5135707;27;20051;-62
2022/12/20 11:36:00;;;;;;;4.95;3.05;;;;;;;4.67;52.76;98014.78;5135471;27;20051;-61
2022/12/20 11:38:38;;;;;;;6.68;3.50;;;;;;;4.80;53.48;98013.19;5135406;27;20133;-63
2022/12/20 11:41:15;;;;;;;6.22;3.95;;;;;;;4.88;53.72;98009.78;5135729;27;20043;-63
2022/12/20 11:43:57;;;;;;;10.05;4.25;;;;;;;4.94;54.30;98004.66;5135188;27;20063;-64
2022/12/20 11:46:36;;;;;;;6.00;3.85;;;;;;;5.04;53.12;98005.56;5135263;27;20480;-66
2022/12/20 11:49:30;;;;;;;6.18;4.05;;;;;;;5.10;54.28;98003.03;5135526;27;20043;-62
2022/12/20 11:52:06;;;;;;;6.40;3.92;;;;;;;5.12;53.62;97996.09;5135099;27;20134;-65